Terminal Aerodrome Forecast
Issued by NWS Twin Cities, MN

Home | Current Version | Previous Version | Text Only | Print | Product List | Glossary On
Versions: 1 2 3 4 5 6 7 8 9 10 11 12 13 14 15 16 17 18 19
000
FTUS43 KMPX 060520
TAFSTC
TAF
KSTC 060520Z 0606/0706 13011KT P6SM OVC015
     FM060700 13013KT P6SM BKN008 OVC015
     FM061300 13011KT 5SM -RA BR SCT007 OVC015
     FM061600 13013G20KT 5SM BR VCSH SCT015 BKN025
     FM062100 14012G18KT 4SM -SHRA BR VCTS SCT020 OVC035CB=

USA.gov is the U.S. government's official web portal to all federal, state and local government web resources and services.